createdAt,value
2022-08-23T00:00:00.604Z,6.80
2022-08-23T00:02:36.503Z,5.80
2022-08-23T00:05:10.211Z,7.63
2022-08-23T00:07:44.055Z,5.53
2022-08-23T00:10:17.599Z,4.88
2022-08-23T00:12:48.693Z,5.40
2022-08-23T00:15:21.684Z,6.63
2022-08-23T00:17:52.388Z,4.00
2022-08-23T00:20:22.978Z,11.65
2022-08-23T00:22:53.711Z,5.53
2022-08-23T00:25:24.261Z,9.80
2022-08-23T00:30:25.251Z,4.57
2022-08-23T00:32:58.084Z,11.15
2022-08-23T00:35:29.152Z,5.47
2022-08-23T00:38:31.796Z,5.43
2022-08-23T00:40:53.661Z,13.85
2022-08-23T00:43:51.997Z,4.90
2022-08-23T00:47:09.861Z,7.97
2022-08-23T00:49:42.716Z,7.25
2022-08-23T00:52:20.390Z,5.00
2022-08-23T00:54:52.339Z,6.57
2022-08-23T00:57:24.405Z,5.07
2022-08-23T00:59:55.043Z,5.03
2022-08-23T01:02:26.205Z,10.93
2022-08-23T01:05:02.663Z,4.28
2022-08-23T01:07:47.884Z,5.75
2022-08-23T01:10:30.473Z,8.18
2022-08-23T01:13:16.675Z,9.25
2022-08-23T01:16:03.295Z,12.95
2022-08-23T01:18:34.412Z,13.15
2022-08-23T01:21:14.902Z,5.40
2022-08-23T01:23:49.111Z,8.95
2022-08-23T01:26:22.158Z,8.50
2022-08-23T01:28:55.225Z,7.35
2022-08-23T01:31:26.977Z,5.88
2022-08-23T01:34:03.174Z,7.85
2022-08-23T01:36:34.036Z,6.00
2022-08-23T01:39:06.483Z,7.55
2022-08-23T01:41:40.072Z,9.73
2022-08-23T01:44:11.665Z,15.65
2022-08-23T01:46:46.329Z,5.72
2022-08-23T01:49:17.568Z,10.32
2022-08-23T01:51:48.683Z,11.80
2022-08-23T01:54:19.181Z,9.05
2022-08-23T01:56:51.149Z,12.02
2022-08-23T01:59:21.808Z,17.55
2022-08-23T02:01:56.138Z,16.75
2022-08-23T02:04:27.123Z,7.95
2022-08-23T02:06:57.706Z,6.38
2022-08-23T02:09:28.277Z,6.18
2022-08-23T02:12:02.082Z,8.93
2022-08-23T02:14:32.979Z,11.55
2022-08-23T02:17:05.071Z,14.07
2022-08-23T02:19:37.096Z,9.23
2022-08-23T02:22:09.546Z,12.45
2022-08-23T02:24:47.975Z,13.32
2022-08-23T02:27:19.438Z,11.95
2022-08-23T02:29:51.653Z,6.90
2022-08-23T02:32:26.995Z,10.35
2022-08-23T02:35:05.186Z,8.38
2022-08-23T02:37:37.676Z,12.75
2022-08-23T02:42:38.550Z,9.23
2022-08-23T02:47:47.799Z,11.52
2022-08-23T02:50:29.554Z,10.98
2022-08-23T02:53:00.728Z,11.25
2022-08-23T02:55:31.517Z,8.15
2022-08-23T02:58:02.264Z,12.48
2022-08-23T03:00:32.899Z,15.30
2022-08-23T03:03:03.381Z,12.75
2022-08-23T03:05:34.400Z,10.88
2022-08-23T03:08:06.769Z,15.80
2022-08-23T03:10:47.364Z,9.20
2022-08-23T03:13:18.544Z,12.25
2022-08-23T03:15:51.770Z,11.88
2022-08-23T03:18:22.173Z,12.88
2022-08-23T03:20:52.608Z,11.23
2022-08-23T03:23:23.056Z,10.27
2022-08-23T03:25:53.470Z,7.93
2022-08-23T03:28:29.175Z,10.30
2022-08-23T03:30:59.768Z,11.30
2022-08-23T03:33:30.746Z,16.20
2022-08-23T03:36:06.065Z,11.27
2022-08-23T03:38:38.070Z,17.95
2022-08-23T03:41:11.717Z,11.55
2022-08-23T03:43:42.195Z,13.30
2022-08-23T03:49:02.633Z,12.02
2022-08-23T03:51:43.464Z,14.48
2022-08-23T03:57:05.723Z,11.15
2022-08-23T03:59:39.863Z,16.48
2022-08-23T04:02:12.702Z,10.63
2022-08-23T04:07:32.895Z,9.85
2022-08-23T04:10:03.712Z,14.40
2022-08-23T04:12:38.526Z,13.05
2022-08-23T04:15:15.235Z,13.25
2022-08-23T04:17:45.677Z,13.02
2022-08-23T04:20:17.291Z,14.23
2022-08-23T04:22:57.504Z,13.30
2022-08-23T04:25:34.719Z,17.10
2022-08-23T04:28:07.892Z,24.98
2022-08-23T04:30:38.447Z,13.95
2022-08-23T04:33:11.353Z,12.98
2022-08-23T04:35:44.198Z,19.83
2022-08-23T04:38:23.943Z,15.40
2022-08-23T04:41:17.712Z,15.32
2022-08-23T04:43:49.886Z,24.40
2022-08-23T04:46:20.485Z,13.02
2022-08-23T04:48:52.125Z,12.27
2022-08-23T04:53:54.032Z,14.18
2022-08-23T04:56:43.487Z,10.27
2022-08-23T04:59:14.918Z,20.48
2022-08-23T05:01:47.754Z,11.55
2022-08-23T05:04:18.565Z,12.13
2022-08-23T05:06:49.623Z,12.00
2022-08-23T05:09:20.833Z,13.73
2022-08-23T05:11:52.540Z,24.02
2022-08-23T05:14:23.656Z,15.32
2022-08-23T05:19:25.656Z,15.48
2022-08-23T05:21:57.435Z,18.17
2022-08-23T05:24:43.879Z,11.13
2022-08-23T05:27:14.422Z,17.55
2022-08-23T05:29:45.637Z,12.65
2022-08-23T05:32:16.034Z,14.23
2022-08-23T05:34:46.369Z,14.40
2022-08-23T05:37:18.363Z,13.60
2022-08-23T05:39:49.435Z,20.38
2022-08-23T05:42:21.210Z,21.30
2022-08-23T05:47:24.697Z,19.45
2022-08-23T05:50:24.398Z,19.98
2022-08-23T05:55:34.607Z,12.73
2022-08-23T05:58:21.848Z,16.90
2022-08-23T06:00:53.137Z,13.82
2022-08-23T06:03:23.563Z,20.25
2022-08-23T06:06:05.225Z,21.63
2022-08-23T06:08:36.948Z,14.27
2022-08-23T06:11:21.422Z,13.88
2022-08-23T06:13:57.987Z,18.60
2022-08-23T06:16:37.625Z,22.70
2022-08-23T06:19:10.247Z,19.23
2022-08-23T06:21:49.974Z,21.10
2022-08-23T06:24:27.148Z,24.88
2022-08-23T06:27:24.062Z,15.88
2022-08-23T06:29:54.831Z,16.65
2022-08-23T06:32:33.877Z,15.73
2022-08-23T06:35:40.192Z,22.88
2022-08-23T06:38:14.230Z,31.88
2022-08-23T06:41:07.176Z,13.15
2022-08-23T06:43:55.965Z,15.18
2022-08-23T06:46:35.922Z,36.90
2022-08-23T06:49:08.293Z,48.13
2022-08-23T06:51:42.719Z,26.63
2022-08-23T06:54:26.448Z,11.77
2022-08-23T06:57:35.219Z,22.05
2022-08-23T07:00:23.926Z,61.15
2022-08-23T07:03:13.010Z,25.65
2022-08-23T07:06:01.256Z,42.83
2022-08-23T07:08:34.611Z,52.53
2022-08-23T07:11:06.415Z,85.63
2022-08-23T07:13:37.445Z,53.25
2022-08-23T07:16:08.220Z,45.70
2022-08-23T07:18:39.427Z,38.55
2022-08-23T07:21:09.958Z,39.25
2022-08-23T07:23:46.374Z,12.77
2022-08-23T07:26:19.343Z,14.07
2022-08-23T07:28:49.857Z,16.73
2022-08-23T07:34:05.382Z,52.10
2022-08-23T07:36:40.705Z,37.80
2022-08-23T07:39:12.238Z,31.83
2022-08-23T07:41:43.647Z,15.05
2022-08-23T07:44:18.256Z,20.83
2022-08-23T07:46:50.554Z,14.13
2022-08-23T07:49:21.268Z,14.05
2022-08-23T07:51:53.694Z,18.95
2022-08-23T07:54:26.901Z,39.67
2022-08-23T07:57:17.119Z,11.38
2022-08-23T07:59:58.964Z,54.35
2022-08-23T08:02:53.078Z,32.40
2022-08-23T08:05:34.309Z,64.32
2022-08-23T08:08:07.584Z,33.55
2022-08-23T08:10:39.960Z,73.38
2022-08-23T08:13:11.381Z,44.58
2022-08-23T08:15:44.245Z,22.92
2022-08-23T08:18:17.339Z,23.95
2022-08-23T08:21:06.738Z,64.10
2022-08-23T08:23:55.725Z,52.72
2022-08-23T08:26:48.154Z,28.90
2022-08-23T08:29:19.435Z,52.55
2022-08-23T08:31:54.120Z,24.02
2022-08-23T08:34:25.836Z,135.63
2022-08-23T08:36:59.947Z,44.28
2022-08-23T08:39:33.939Z,66.90
2022-08-23T08:42:47.018Z,95.63
2022-08-23T08:45:26.527Z,25.13
2022-08-23T08:48:13.192Z,15.32
2022-08-23T08:51:46.880Z,31.73
2022-08-23T08:54:24.223Z,35.10
2022-08-23T08:56:59.191Z,21.98
2022-08-23T08:59:42.702Z,18.15
2022-08-23T09:02:32.755Z,27.17
2022-08-23T09:05:21.312Z,30.80
2022-08-23T09:08:10.390Z,19.88
2022-08-23T09:11:07.439Z,9.88
2022-08-23T09:14:07.437Z,15.77
2022-08-23T09:16:53.251Z,61.10
2022-08-23T09:19:25.535Z,37.50
2022-08-23T09:22:03.722Z,62.70
2022-08-23T09:24:35.201Z,21.48
2022-08-23T09:27:22.988Z,70.30
2022-08-23T09:32:39.089Z,25.23
2022-08-23T09:35:25.472Z,95.63
2022-08-23T09:38:14.270Z,40.00
2022-08-23T09:40:51.024Z,42.10
2022-08-23T09:43:27.785Z,84.35
2022-08-23T09:46:03.056Z,28.13
2022-08-23T09:48:46.793Z,50.97
2022-08-23T09:51:37.686Z,41.25
2022-08-23T09:54:24.682Z,15.32
2022-08-23T09:56:59.590Z,16.42
2022-08-23T09:59:30.151Z,39.58
2022-08-23T10:02:16.577Z,25.80
2022-08-23T10:04:57.607Z,23.10
2022-08-23T10:07:36.637Z,22.85
2022-08-23T10:10:19.063Z,21.00
2022-08-23T10:12:49.889Z,19.35
2022-08-23T10:15:33.103Z,31.00
2022-08-23T10:18:41.055Z,15.48
2022-08-23T10:21:33.393Z,24.42
2022-08-23T10:24:21.026Z,20.65
2022-08-23T10:28:03.479Z,10.52
2022-08-23T10:30:53.401Z,23.48
2022-08-23T10:34:05.321Z,8.43
2022-08-23T10:37:06.103Z,47.53
2022-08-23T10:39:46.914Z,8.15
2022-08-23T10:42:56.753Z,13.23
2022-08-23T10:45:33.335Z,9.30
2022-08-23T10:48:28.911Z,8.77
2022-08-23T10:51:05.612Z,9.73
2022-08-23T10:53:39.408Z,24.75
2022-08-23T10:56:14.811Z,41.55
2022-08-23T10:59:22.070Z,9.88
2022-08-23T11:02:22.222Z,10.30
2022-08-23T11:05:28.360Z,20.00
2022-08-23T11:08:34.913Z,12.05
2022-08-23T11:11:40.757Z,17.98
2022-08-23T11:14:31.730Z,6.85
2022-08-23T11:17:05.081Z,13.73
2022-08-23T11:19:55.063Z,6.82
2022-08-23T11:22:32.889Z,8.57
2022-08-23T11:25:19.933Z,6.40
2022-08-23T11:27:50.479Z,8.02
2022-08-23T11:33:37.279Z,6.90
2022-08-23T11:36:10.839Z,8.80
2022-08-23T11:38:51.798Z,10.65
2022-08-23T11:41:22.210Z,8.38
2022-08-23T11:43:59.138Z,10.57
2022-08-23T11:46:31.828Z,5.95
2022-08-23T11:49:28.946Z,23.50
2022-08-23T11:52:53.328Z,18.48
2022-08-23T11:55:29.487Z,12.43
2022-08-23T11:58:24.689Z,37.75
2022-08-23T12:01:12.812Z,19.20
2022-08-23T12:04:35.118Z,10.60
2022-08-23T12:07:13.713Z,16.08
2022-08-23T12:09:44.430Z,12.98
2022-08-23T12:12:40.044Z,8.35
2022-08-23T12:15:15.081Z,9.15
2022-08-23T12:17:45.514Z,6.10
2022-08-23T12:20:30.213Z,12.00
2022-08-23T12:23:26.817Z,10.52
2022-08-23T12:26:26.000Z,7.20
2022-08-23T12:29:20.691Z,9.73
2022-08-23T12:32:30.376Z,6.60
2022-08-23T12:35:14.629Z,8.63
2022-08-23T12:38:25.072Z,7.28
2022-08-23T12:40:56.990Z,14.57
2022-08-23T12:43:32.927Z,8.65
2022-08-23T12:46:04.730Z,7.43
2022-08-23T12:48:47.154Z,8.68
2022-08-23T12:51:17.620Z,7.57
2022-08-23T12:56:32.116Z,7.25
2022-08-23T12:59:08.050Z,5.03
2022-08-23T13:01:40.647Z,8.00
2022-08-23T13:04:22.064Z,5.85
2022-08-23T13:07:03.303Z,9.52
2022-08-23T13:09:39.899Z,6.07
2022-08-23T13:12:12.191Z,5.22
2022-08-23T13:14:47.803Z,4.18
2022-08-23T13:17:32.180Z,4.53
2022-08-23T13:20:08.951Z,4.20
2022-08-23T13:25:31.669Z,4.80
2022-08-23T13:28:42.899Z,7.70
2022-08-23T13:31:13.670Z,5.20
2022-08-23T13:33:55.114Z,4.30
2022-08-23T13:36:25.484Z,4.25
2022-08-23T13:38:55.910Z,3.40
2022-08-23T13:44:12.749Z,3.42
2022-08-23T13:46:50.119Z,8.20
2022-08-23T13:49:29.677Z,3.67
2022-08-23T13:52:33.453Z,13.60
2022-08-23T13:54:53.352Z,6.85
2022-08-23T14:00:03.465Z,2.85
2022-08-23T14:02:40.219Z,2.28
2022-08-23T14:05:11.241Z,2.28
2022-08-23T14:07:41.911Z,3.35
2022-08-23T14:10:12.641Z,4.03
2022-08-23T14:12:46.953Z,2.88
2022-08-23T14:15:18.251Z,5.90
2022-08-23T14:17:56.032Z,2.38
2022-08-23T14:20:44.074Z,2.78
2022-08-23T14:23:16.179Z,5.43
2022-08-23T14:28:17.685Z,3.20
2022-08-23T14:30:49.314Z,6.35
2022-08-23T14:33:21.353Z,3.55
2022-08-23T14:35:57.234Z,6.65
2022-08-23T14:38:28.766Z,7.15
2022-08-23T14:41:04.552Z,6.85
2022-08-23T14:43:35.421Z,4.68
2022-08-23T14:46:06.429Z,6.20
2022-08-23T14:48:37.816Z,3.17
2022-08-23T14:51:16.180Z,2.78
2022-08-23T14:53:47.843Z,5.07
2022-08-23T14:56:21.454Z,4.95
2022-08-23T14:58:53.399Z,1.92
2022-08-23T15:01:24.407Z,5.72
2022-08-23T15:03:55.466Z,2.55
2022-08-23T15:06:25.880Z,4.57
2022-08-23T15:08:56.531Z,1.60
2022-08-23T15:14:17.646Z,1.92
2022-08-23T15:16:48.249Z,3.13
2022-08-23T15:19:18.904Z,2.80
2022-08-23T15:21:49.436Z,2.20
2022-08-23T15:24:19.956Z,1.90
2022-08-23T15:26:50.495Z,1.70
2022-08-23T15:29:21.156Z,3.92
2022-08-23T15:31:51.685Z,1.27
2022-08-23T15:34:22.927Z,1.73
2022-08-23T15:36:53.529Z,4.63
2022-08-23T15:39:24.253Z,2.95
2022-08-23T15:41:54.710Z,3.65
2022-08-23T15:44:25.088Z,3.67
2022-08-23T15:46:56.755Z,4.07
2022-08-23T15:49:35.449Z,6.45
2022-08-23T15:52:07.315Z,1.50
2022-08-23T15:54:38.362Z,1.27
2022-08-23T15:57:09.019Z,2.55
2022-08-23T15:59:40.544Z,1.52
2022-08-23T16:02:11.093Z,1.88
2022-08-23T16:04:41.989Z,1.25
2022-08-23T16:07:16.775Z,1.25
2022-08-23T16:09:48.497Z,4.65
2022-08-23T16:12:18.853Z,1.20
2022-08-23T16:14:49.423Z,7.07
2022-08-23T16:17:21.898Z,5.28
2022-08-23T16:19:55.576Z,1.88
2022-08-23T16:22:26.735Z,1.55
2022-08-23T16:24:57.145Z,1.67
2022-08-23T16:27:28.104Z,2.38
2022-08-23T16:29:58.536Z,2.70
2022-08-23T16:32:28.939Z,1.38
2022-08-23T16:34:59.412Z,1.50
2022-08-23T16:37:29.888Z,3.72
2022-08-23T16:40:00.533Z,2.92
2022-08-23T16:42:31.036Z,4.68
2022-08-23T16:45:01.484Z,2.30
2022-08-23T16:47:35.208Z,1.05
2022-08-23T16:50:06.832Z,1.40
2022-08-23T16:52:37.333Z,3.33
2022-08-23T16:55:10.588Z,3.28
2022-08-23T16:57:42.081Z,1.52
2022-08-23T17:00:15.211Z,2.88
2022-08-23T17:02:46.220Z,1.45
2022-08-23T17:05:20.105Z,0.93
2022-08-23T17:07:50.568Z,1.15
2022-08-23T17:10:21.816Z,1.67
2022-08-23T17:12:54.957Z,1.50
2022-08-23T17:15:34.182Z,1.35
2022-08-23T17:18:05.379Z,1.33
2022-08-23T17:20:39.285Z,2.17
2022-08-23T17:23:10.690Z,2.35
2022-08-23T17:25:44.368Z,1.88
2022-08-23T17:28:15.631Z,3.03
2022-08-23T17:30:46.317Z,3.03
2022-08-23T17:33:16.778Z,1.80
2022-08-23T17:35:47.755Z,2.22
2022-08-23T17:38:18.481Z,1.65
2022-08-23T17:40:49.166Z,3.08
2022-08-23T17:43:19.540Z,1.20
2022-08-23T17:45:52.840Z,1.92
2022-08-23T17:48:23.754Z,1.35
2022-08-23T17:50:54.189Z,1.23
2022-08-23T17:53:24.675Z,1.35
2022-08-23T17:55:55.272Z,3.83
2022-08-23T17:58:26.085Z,1.30
2022-08-23T18:00:58.583Z,1.38
2022-08-23T18:03:29.328Z,1.63
2022-08-23T18:06:00.587Z,1.75
2022-08-23T18:08:31.124Z,2.10
2022-08-23T18:11:01.862Z,1.23
2022-08-23T18:13:32.308Z,1.75
2022-08-23T18:16:03.262Z,2.80
2022-08-23T18:18:33.716Z,3.78
2022-08-23T18:21:13.379Z,3.25
2022-08-23T18:23:43.949Z,1.50
2022-08-23T18:27:07.315Z,8.50
2022-08-23T18:29:39.822Z,1.00
2022-08-23T18:32:14.155Z,1.88
2022-08-23T18:34:44.493Z,5.32
2022-08-23T18:37:18.293Z,6.82
2022-08-23T18:39:49.629Z,5.15
2022-08-23T18:42:20.865Z,4.75
2022-08-23T18:44:51.362Z,1.73
2022-08-23T18:47:21.846Z,1.65
2022-08-23T18:49:52.290Z,3.05
2022-08-23T18:52:22.899Z,5.05
2022-08-23T18:54:53.318Z,6.93
2022-08-23T18:57:23.862Z,3.72
2022-08-23T18:59:54.331Z,10.70
2022-08-23T19:02:26.105Z,3.08
2022-08-23T19:04:57.203Z,4.00
2022-08-23T19:07:27.689Z,3.53
2022-08-23T19:09:58.092Z,1.10
2022-08-23T19:12:29.680Z,3.80
2022-08-23T19:15:00.183Z,4.25
2022-08-23T19:17:30.722Z,2.05
2022-08-23T19:20:02.504Z,1.83
2022-08-23T19:22:32.989Z,6.30
2022-08-23T19:25:04.170Z,4.68
2022-08-23T19:27:35.485Z,5.45
2022-08-23T19:30:08.546Z,10.50
2022-08-23T19:32:40.843Z,4.80
2022-08-23T19:35:14.162Z,1.38
2022-08-23T19:37:45.197Z,7.18
2022-08-23T19:40:15.889Z,3.33
2022-08-23T19:42:47.102Z,3.22
2022-08-23T19:45:17.848Z,5.55
2022-08-23T19:47:48.431Z,4.78
2022-08-23T19:50:24.170Z,6.18
2022-08-23T19:52:55.425Z,6.35
2022-08-23T19:55:25.929Z,3.13
2022-08-23T19:57:57.837Z,3.78
2022-08-23T20:00:29.361Z,4.30
2022-08-23T20:03:00.384Z,3.53
2022-08-23T20:05:30.970Z,5.18
2022-08-23T20:08:02.167Z,17.08
2022-08-23T20:10:32.551Z,3.10
2022-08-23T20:13:03.222Z,3.70
2022-08-23T20:15:33.922Z,3.55
2022-08-23T20:18:04.610Z,2.33
2022-08-23T20:20:35.075Z,3.90
2022-08-23T20:23:23.379Z,2.28
2022-08-23T20:25:54.139Z,5.93
2022-08-23T20:28:26.463Z,13.43
2022-08-23T20:30:56.960Z,5.90
2022-08-23T20:33:27.427Z,7.63
2022-08-23T20:35:57.802Z,4.32
2022-08-23T20:38:33.395Z,3.38
2022-08-23T20:43:35.052Z,5.78
2022-08-23T20:46:05.554Z,9.57
2022-08-23T20:48:37.037Z,7.28
2022-08-23T20:51:09.256Z,2.47
2022-08-23T20:53:42.120Z,10.68
2022-08-23T20:56:12.997Z,3.63
2022-08-23T20:58:43.903Z,8.02
2022-08-23T21:01:15.656Z,3.35
2022-08-23T21:03:47.208Z,11.38
2022-08-23T21:06:29.291Z,5.78
2022-08-23T21:09:01.458Z,9.13
2022-08-23T21:11:32.273Z,18.90
2022-08-23T21:14:02.803Z,5.07
2022-08-23T21:16:33.612Z,4.78
2022-08-23T21:19:04.249Z,8.93
2022-08-23T21:21:34.882Z,5.40
2022-08-23T21:24:06.511Z,6.93
2022-08-23T21:26:38.064Z,9.93
2022-08-23T21:29:09.700Z,6.82
2022-08-23T21:31:40.938Z,4.75
2022-08-23T21:34:11.327Z,23.13
2022-08-23T21:36:41.922Z,9.73
2022-08-23T21:39:12.481Z,7.40
2022-08-23T21:41:46.108Z,9.10
2022-08-23T21:44:21.194Z,7.72
2022-08-23T21:46:51.699Z,4.85
2022-08-23T21:49:25.094Z,6.75
2022-08-23T21:51:55.683Z,15.27
2022-08-23T21:54:26.171Z,8.68
2022-08-23T21:56:56.967Z,12.23
2022-08-23T21:59:27.891Z,36.00
2022-08-23T22:01:58.504Z,31.40
2022-08-23T22:04:29.544Z,20.70
2022-08-23T22:07:00.961Z,35.22
2022-08-23T22:09:31.937Z,61.55
2022-08-23T22:12:02.565Z,64.15
2022-08-23T22:14:33.516Z,93.18
2022-08-23T22:17:04.096Z,104.85
2022-08-23T22:19:34.678Z,136.40
2022-08-23T22:22:05.059Z,77.85
2022-08-23T22:24:35.573Z,46.85
2022-08-23T22:27:06.252Z,38.53
2022-08-23T22:29:37.436Z,28.80
2022-08-23T22:32:08.489Z,31.80
2022-08-23T22:34:39.296Z,42.42
2022-08-23T22:37:09.791Z,53.92
2022-08-23T22:39:40.574Z,45.33
2022-08-23T22:42:11.076Z,47.33
2022-08-23T22:44:41.713Z,58.00
2022-08-23T22:47:12.105Z,53.08
2022-08-23T22:49:42.595Z,27.88
2022-08-23T22:52:13.795Z,23.17
2022-08-23T22:54:44.402Z,17.40
2022-08-23T22:57:14.916Z,16.77
2022-08-23T22:59:45.389Z,16.38
2022-08-23T23:04:47.207Z,16.88
2022-08-23T23:07:37.637Z,24.00
2022-08-23T23:10:08.626Z,18.13
2022-08-23T23:12:39.103Z,18.40
2022-08-23T23:15:10.303Z,30.90
2022-08-23T23:17:40.658Z,23.70
2022-08-23T23:22:59.358Z,18.52
2022-08-23T23:25:29.848Z,13.35
2022-08-23T23:28:06.378Z,13.18
2022-08-23T23:30:37.845Z,14.00
2022-08-23T23:33:08.793Z,20.17
2022-08-23T23:35:39.566Z,15.35
2022-08-23T23:38:10.906Z,11.60
2022-08-23T23:40:41.648Z,18.17
2022-08-23T23:43:12.982Z,9.50
2022-08-23T23:45:43.851Z,8.45
2022-08-23T23:48:14.363Z,17.42
2022-08-23T23:50:46.743Z,14.50
2022-08-23T23:53:18.237Z,10.25
2022-08-23T23:55:50.049Z,16.08
2022-08-23T23:58:20.473Z,11.48
